createdAt,value
2022-07-25T00:01:54.738Z,8.15
2022-07-25T00:04:24.076Z,6.00
2022-07-25T00:06:51.186Z,5.55
2022-07-25T00:09:18.062Z,7.20
2022-07-25T00:11:45.196Z,5.68
2022-07-25T00:14:12.029Z,7.35
2022-07-25T00:16:39.501Z,6.07
2022-07-25T00:19:06.667Z,6.20
2022-07-25T00:21:33.593Z,5.10
2022-07-25T00:24:00.435Z,6.65
2022-07-25T00:26:27.696Z,5.63
2022-07-25T00:28:54.903Z,7.90
2022-07-25T00:31:21.933Z,8.00
2022-07-25T00:33:49.131Z,5.80
2022-07-25T00:36:16.256Z,6.28
2022-07-25T00:38:43.175Z,9.10
2022-07-25T00:41:10.181Z,8.60
2022-07-25T00:43:37.155Z,9.88
2022-07-25T00:46:04.242Z,6.18
2022-07-25T00:48:31.320Z,8.20
2022-07-25T00:50:58.864Z,5.55
2022-07-25T00:53:26.088Z,7.25
2022-07-25T00:55:53.552Z,6.22
2022-07-25T00:58:20.575Z,7.82
2022-07-25T01:00:47.873Z,6.00
2022-07-25T01:03:15.982Z,5.75
2022-07-25T01:05:43.033Z,5.70
2022-07-25T01:08:10.280Z,6.43
2022-07-25T01:10:38.096Z,8.43
2022-07-25T01:13:05.741Z,6.18
2022-07-25T01:15:32.840Z,7.93
2022-07-25T01:17:59.922Z,5.50
2022-07-25T01:20:28.894Z,6.00
2022-07-25T01:22:56.641Z,8.82
2022-07-25T01:25:24.978Z,8.70
2022-07-25T01:27:55.699Z,6.55
2022-07-25T01:30:24.671Z,7.32
2022-07-25T01:32:52.648Z,8.50
2022-07-25T01:35:19.932Z,10.48
2022-07-25T01:37:46.980Z,8.43
2022-07-25T01:40:15.188Z,7.28
2022-07-25T01:42:43.103Z,6.15
2022-07-25T01:45:11.279Z,6.38
2022-07-25T01:47:38.782Z,9.50
2022-07-25T01:50:06.405Z,6.75
2022-07-25T01:52:33.271Z,6.82
2022-07-25T01:55:00.486Z,8.85
2022-07-25T01:57:31.156Z,9.80
2022-07-25T01:59:59.158Z,12.63
2022-07-25T02:02:26.757Z,8.65
2022-07-25T02:04:53.960Z,8.73
2022-07-25T02:07:20.907Z,8.02
2022-07-25T02:09:49.346Z,8.63
2022-07-25T02:12:18.357Z,7.85
2022-07-25T02:14:45.619Z,8.43
2022-07-25T02:17:12.785Z,7.80
2022-07-25T02:19:39.864Z,9.88
2022-07-25T02:22:07.061Z,9.95
2022-07-25T02:24:34.095Z,7.05
2022-07-25T02:27:00.931Z,6.72
2022-07-25T02:29:27.829Z,7.75
2022-07-25T02:31:54.861Z,8.73
2022-07-25T02:34:21.728Z,8.43
2022-07-25T02:36:48.682Z,9.85
2022-07-25T02:39:15.778Z,12.52
2022-07-25T02:41:43.806Z,9.95
2022-07-25T02:44:10.950Z,9.15
2022-07-25T02:46:37.971Z,11.73
2022-07-25T02:49:05.025Z,8.25
2022-07-25T02:51:32.135Z,9.60
2022-07-25T02:53:59.406Z,10.73
2022-07-25T02:56:29.735Z,9.35
2022-07-25T02:58:57.432Z,10.70
2022-07-25T03:01:24.917Z,14.77
2022-07-25T03:03:52.027Z,8.70
2022-07-25T03:06:18.997Z,11.25
2022-07-25T03:08:46.111Z,12.65
2022-07-25T03:11:13.626Z,9.70
2022-07-25T03:13:40.494Z,10.48
2022-07-25T03:16:08.074Z,9.73
2022-07-25T03:18:34.875Z,8.38
2022-07-25T03:21:01.917Z,11.10
2022-07-25T03:23:29.956Z,10.93
2022-07-25T03:25:57.188Z,11.77
2022-07-25T03:28:24.913Z,10.60
2022-07-25T03:30:53.084Z,10.93
2022-07-25T03:33:20.149Z,10.82
2022-07-25T03:35:47.264Z,9.88
2022-07-25T03:38:14.872Z,14.05
2022-07-25T03:40:41.799Z,9.13
2022-07-25T03:43:08.763Z,10.07
2022-07-25T03:45:36.140Z,10.40
2022-07-25T03:48:03.062Z,11.00
2022-07-25T03:50:30.506Z,10.30
2022-07-25T03:52:57.826Z,8.95
2022-07-25T03:55:24.832Z,9.98
2022-07-25T03:57:51.718Z,10.70
2022-07-25T04:00:18.965Z,10.32
2022-07-25T04:02:45.931Z,9.60
2022-07-25T04:05:12.854Z,10.85
2022-07-25T04:07:40.035Z,8.45
2022-07-25T04:10:07.913Z,10.23
2022-07-25T04:12:34.951Z,8.35
2022-07-25T04:15:02.134Z,9.73
2022-07-25T04:17:29.094Z,9.73
2022-07-25T04:19:56.251Z,10.35
2022-07-25T04:22:23.849Z,9.35
2022-07-25T04:24:50.742Z,7.95
2022-07-25T04:27:17.603Z,12.98
2022-07-25T04:29:44.795Z,8.40
2022-07-25T04:32:11.733Z,8.25
2022-07-25T04:34:38.661Z,10.85
2022-07-25T04:37:05.866Z,9.68
2022-07-25T04:39:32.770Z,7.22
2022-07-25T04:41:59.616Z,8.68
2022-07-25T04:44:26.731Z,9.80
2022-07-25T04:46:53.592Z,11.45
2022-07-25T04:49:21.127Z,6.45
2022-07-25T04:51:48.160Z,5.50
2022-07-25T04:54:15.040Z,8.05
2022-07-25T04:56:41.950Z,6.97
2022-07-25T04:59:08.976Z,9.15
2022-07-25T05:01:35.897Z,8.30
2022-07-25T05:04:02.861Z,8.05
2022-07-25T05:06:30.055Z,8.48
2022-07-25T05:08:57.293Z,5.95
2022-07-25T05:11:24.099Z,5.75
2022-07-25T05:13:51.149Z,7.32
2022-07-25T05:16:18.115Z,5.85
2022-07-25T05:18:44.943Z,6.40
2022-07-25T05:21:12.911Z,6.05
2022-07-25T05:23:41.446Z,6.68
2022-07-25T05:26:08.366Z,5.85
2022-07-25T05:28:36.026Z,4.53
2022-07-25T05:31:03.195Z,4.47
2022-07-25T05:33:30.424Z,4.03
2022-07-25T05:35:57.605Z,3.97
2022-07-25T05:38:24.873Z,3.80
2022-07-25T05:40:52.345Z,4.72
2022-07-25T05:43:19.770Z,4.07
2022-07-25T05:45:49.597Z,5.40
2022-07-25T05:48:16.934Z,4.47
2022-07-25T05:50:46.004Z,4.28
2022-07-25T05:53:12.959Z,4.70
2022-07-25T05:55:40.712Z,6.32
2022-07-25T05:58:09.677Z,7.07
2022-07-25T06:00:37.726Z,8.00
2022-07-25T06:03:05.080Z,4.80
2022-07-25T06:05:32.479Z,5.18
2022-07-25T06:07:59.356Z,6.15
2022-07-25T06:10:26.555Z,7.10
2022-07-25T06:12:53.768Z,6.07
2022-07-25T06:15:23.162Z,6.07
2022-07-25T06:17:54.791Z,9.43
2022-07-25T06:20:21.893Z,6.28
2022-07-25T06:22:48.999Z,4.55
2022-07-25T06:25:16.363Z,5.32
2022-07-25T06:27:43.482Z,6.80
2022-07-25T06:30:19.584Z,5.53
2022-07-25T06:32:50.564Z,10.23
2022-07-25T06:35:18.191Z,7.55
2022-07-25T06:37:45.733Z,6.93
2022-07-25T06:40:13.227Z,3.92
2022-07-25T06:42:45.208Z,6.78
2022-07-25T06:45:14.298Z,8.10
2022-07-25T06:47:42.861Z,6.53
2022-07-25T06:50:12.498Z,7.22
2022-07-25T06:52:40.268Z,5.57
2022-07-25T06:55:09.450Z,7.60
2022-07-25T06:57:37.134Z,6.38
2022-07-25T07:00:09.130Z,6.03
2022-07-25T07:02:47.698Z,4.72
2022-07-25T07:05:14.791Z,6.22
2022-07-25T07:07:47.439Z,5.43
2022-07-25T07:10:15.765Z,7.70
2022-07-25T07:12:43.024Z,3.35
2022-07-25T07:15:10.581Z,6.50
2022-07-25T07:17:37.431Z,4.32
2022-07-25T07:20:06.408Z,2.92
2022-07-25T07:22:43.720Z,3.95
2022-07-25T07:25:10.647Z,4.82
2022-07-25T07:27:38.292Z,3.33
2022-07-25T07:30:05.710Z,4.65
2022-07-25T07:32:33.719Z,3.35
2022-07-25T07:35:00.887Z,4.28
2022-07-25T07:37:30.412Z,6.20
2022-07-25T07:40:02.146Z,2.90
2022-07-25T07:42:37.760Z,3.95
2022-07-25T07:45:11.184Z,2.80
2022-07-25T07:47:38.010Z,5.35
2022-07-25T07:50:06.279Z,3.35
2022-07-25T07:52:33.177Z,5.82
2022-07-25T07:55:18.716Z,8.82
2022-07-25T07:57:45.776Z,5.07
2022-07-25T08:00:16.509Z,3.78
2022-07-25T08:02:49.872Z,4.45
2022-07-25T08:05:31.548Z,3.38
2022-07-25T08:10:28.479Z,4.10
2022-07-25T08:12:55.893Z,4.78
2022-07-25T08:15:23.303Z,3.42
2022-07-25T08:17:51.556Z,4.70
2022-07-25T08:20:37.573Z,5.18
2022-07-25T08:23:06.661Z,3.42
2022-07-25T08:25:35.204Z,6.13
2022-07-25T08:28:02.043Z,3.85
2022-07-25T08:30:29.693Z,3.30
2022-07-25T08:32:59.950Z,2.78
2022-07-25T08:35:28.401Z,3.92
2022-07-25T08:37:56.095Z,2.90
2022-07-25T08:40:25.011Z,3.53
2022-07-25T08:42:52.686Z,4.55
2022-07-25T08:45:20.495Z,3.75
2022-07-25T08:47:49.095Z,6.40
2022-07-25T08:50:19.518Z,5.47
2022-07-25T08:52:48.551Z,3.35
2022-07-25T08:55:21.232Z,2.92
2022-07-25T08:57:50.860Z,6.15
2022-07-25T09:00:21.320Z,4.70
2022-07-25T09:02:53.398Z,4.10
2022-07-25T09:05:22.604Z,4.15
2022-07-25T09:07:49.890Z,5.35
2022-07-25T09:10:19.438Z,3.67
2022-07-25T09:13:00.777Z,4.18
2022-07-25T09:15:33.712Z,6.55
2022-07-25T09:18:04.070Z,4.25
2022-07-25T09:20:43.658Z,5.85
2022-07-25T09:23:15.883Z,3.22
2022-07-25T09:25:42.689Z,4.28
2022-07-25T09:28:12.299Z,3.83
2022-07-25T09:30:40.522Z,7.80
2022-07-25T09:33:07.745Z,4.53
2022-07-25T09:35:38.788Z,3.78
2022-07-25T09:40:40.485Z,3.38
2022-07-25T09:43:08.323Z,4.53
2022-07-25T09:45:35.281Z,5.45
2022-07-25T09:48:04.920Z,3.28
2022-07-25T09:50:33.572Z,3.67
2022-07-25T09:53:02.587Z,5.10
2022-07-25T09:55:30.770Z,4.38
2022-07-25T09:57:58.244Z,4.90
2022-07-25T10:00:27.422Z,5.80
2022-07-25T10:03:18.753Z,3.40
2022-07-25T10:08:36.836Z,4.38
2022-07-25T10:11:06.813Z,6.80
2022-07-25T10:13:35.379Z,6.10
2022-07-25T10:16:02.996Z,4.97
2022-07-25T10:18:31.011Z,6.45
2022-07-25T10:21:26.073Z,4.93
2022-07-25T10:24:09.541Z,4.32
2022-07-25T10:26:39.879Z,5.70
2022-07-25T10:29:11.431Z,4.38
2022-07-25T10:34:14.910Z,6.30
2022-07-25T10:36:56.089Z,7.75
2022-07-25T10:39:24.083Z,3.65
2022-07-25T10:42:02.390Z,6.13
2022-07-25T10:44:47.473Z,3.97
2022-07-25T10:47:15.781Z,4.43
2022-07-25T10:50:13.279Z,4.03
2022-07-25T10:52:40.367Z,4.75
2022-07-25T10:55:07.902Z,4.53
2022-07-25T10:57:34.950Z,6.22
2022-07-25T11:00:07.778Z,3.47
2022-07-25T11:02:35.064Z,2.90
2022-07-25T11:05:04.208Z,3.58
2022-07-25T11:07:36.117Z,6.57
2022-07-25T11:10:05.774Z,4.43
2022-07-25T11:12:33.515Z,3.47
2022-07-25T11:15:07.931Z,6.65
2022-07-25T11:17:35.058Z,3.78
2022-07-25T11:20:08.335Z,3.80
2022-07-25T11:22:35.947Z,4.13
2022-07-25T11:25:10.972Z,3.63
2022-07-25T11:27:37.860Z,6.55
2022-07-25T11:30:09.054Z,3.67
2022-07-25T11:32:45.010Z,4.00
2022-07-25T11:35:14.558Z,5.95
2022-07-25T11:37:44.588Z,5.13
2022-07-25T11:40:12.035Z,4.38
2022-07-25T11:42:45.351Z,3.80
2022-07-25T11:45:30.242Z,2.67
2022-07-25T11:48:08.212Z,4.20
2022-07-25T11:50:38.684Z,4.22
2022-07-25T11:53:08.188Z,6.30
2022-07-25T11:55:39.934Z,3.13
2022-07-25T11:58:08.452Z,7.30
2022-07-25T12:00:40.216Z,2.50
2022-07-25T12:03:09.166Z,3.97
2022-07-25T12:05:36.986Z,3.28
2022-07-25T12:08:15.455Z,4.07
2022-07-25T12:10:44.224Z,3.22
2022-07-25T12:13:25.549Z,4.55
2022-07-25T12:15:53.630Z,2.95
2022-07-25T12:18:20.474Z,3.05
2022-07-25T12:20:47.451Z,2.88
2022-07-25T12:23:15.208Z,2.45
2022-07-25T12:25:44.483Z,5.60
2022-07-25T12:28:12.066Z,3.08
2022-07-25T12:30:40.916Z,5.70
2022-07-25T12:33:08.293Z,3.03
2022-07-25T12:35:37.563Z,3.10
2022-07-25T12:38:05.192Z,6.28
2022-07-25T12:40:33.779Z,2.78
2022-07-25T12:43:01.218Z,2.78
2022-07-25T12:45:28.733Z,2.78
2022-07-25T12:47:56.304Z,3.17
2022-07-25T12:50:26.083Z,5.25
2022-07-25T12:52:53.640Z,3.08
2022-07-25T12:55:21.333Z,2.38
2022-07-25T12:57:48.552Z,3.83
2022-07-25T13:00:17.882Z,3.08
2022-07-25T13:02:45.028Z,4.72
2022-07-25T13:05:12.507Z,2.63
2022-07-25T13:07:40.049Z,5.90
2022-07-25T13:10:07.651Z,2.95
2022-07-25T13:12:34.562Z,3.97
2022-07-25T13:15:02.111Z,4.25
2022-07-25T13:17:29.137Z,5.55
2022-07-25T13:19:57.019Z,3.13
2022-07-25T13:22:25.227Z,2.42
2022-07-25T13:24:53.395Z,2.90
2022-07-25T13:27:21.887Z,2.65
2022-07-25T13:29:54.257Z,2.30
2022-07-25T13:32:22.821Z,3.45
2022-07-25T13:34:50.175Z,2.92
2022-07-25T13:37:17.511Z,3.85
2022-07-25T13:39:44.665Z,2.20
2022-07-25T13:42:11.723Z,3.35
2022-07-25T13:44:38.858Z,2.75
2022-07-25T13:47:06.298Z,4.32
2022-07-25T13:49:33.202Z,4.43
2022-07-25T13:52:00.361Z,3.05
2022-07-25T13:54:27.324Z,3.85
2022-07-25T13:56:54.460Z,5.35
2022-07-25T13:59:22.058Z,3.28
2022-07-25T14:01:50.386Z,3.63
2022-07-25T14:04:17.463Z,3.30
2022-07-25T14:06:44.581Z,4.35
2022-07-25T14:09:11.782Z,4.35
2022-07-25T14:11:38.701Z,6.00
2022-07-25T14:14:05.821Z,6.65
2022-07-25T14:16:34.122Z,6.47
2022-07-25T14:19:02.482Z,4.15
2022-07-25T14:21:30.420Z,3.25
2022-07-25T14:23:57.459Z,3.08
2022-07-25T14:26:25.878Z,3.60
2022-07-25T14:28:53.158Z,2.63
2022-07-25T14:31:21.391Z,3.10
2022-07-25T14:33:48.482Z,3.10
2022-07-25T14:36:15.784Z,2.70
2022-07-25T14:38:43.633Z,2.38
2022-07-25T14:41:13.092Z,4.60
2022-07-25T14:43:41.684Z,2.08
2022-07-25T14:46:09.223Z,4.32
2022-07-25T14:48:38.162Z,4.93
2022-07-25T14:51:06.789Z,3.40
2022-07-25T14:53:34.807Z,3.85
2022-07-25T14:56:06.543Z,5.20
2022-07-25T14:58:34.286Z,2.58
2022-07-25T15:01:01.575Z,6.18
2022-07-25T15:03:28.577Z,3.08
2022-07-25T15:05:55.875Z,4.35
2022-07-25T15:08:23.138Z,2.42
2022-07-25T15:10:50.104Z,2.53
2022-07-25T15:13:33.171Z,2.45
2022-07-25T15:16:01.185Z,1.90
2022-07-25T15:18:29.022Z,3.33
2022-07-25T15:20:56.117Z,2.88
2022-07-25T15:23:25.076Z,3.15
2022-07-25T15:28:33.611Z,3.20
2022-07-25T15:31:01.439Z,4.22
2022-07-25T15:33:28.753Z,3.60
2022-07-25T15:35:56.099Z,1.98
2022-07-25T15:38:23.733Z,5.07
2022-07-25T15:40:50.802Z,3.92
2022-07-25T15:43:17.647Z,3.10
2022-07-25T15:45:46.328Z,1.40
2022-07-25T15:48:14.876Z,2.25
2022-07-25T15:50:47.793Z,3.92
2022-07-25T15:53:15.426Z,3.45
2022-07-25T15:55:43.323Z,2.42
2022-07-25T15:58:12.121Z,2.33
2022-07-25T16:00:40.301Z,4.93
2022-07-25T16:03:07.873Z,5.70
2022-07-25T16:05:35.085Z,6.28
2022-07-25T16:08:02.361Z,1.75
2022-07-25T16:10:31.155Z,3.72
2022-07-25T16:12:58.460Z,2.45
2022-07-25T16:15:26.424Z,1.60
2022-07-25T16:18:01.903Z,3.83
2022-07-25T16:20:31.653Z,2.83
2022-07-25T16:22:59.709Z,2.35
2022-07-25T16:25:29.320Z,2.00
2022-07-25T16:27:57.458Z,3.05
2022-07-25T16:30:26.658Z,5.78
2022-07-25T16:32:54.324Z,5.03
2022-07-25T16:35:21.828Z,3.00
2022-07-25T16:37:49.480Z,5.82
2022-07-25T16:40:16.485Z,3.33
2022-07-25T16:42:43.655Z,1.77
2022-07-25T16:45:11.304Z,4.10
2022-07-25T16:47:40.286Z,3.53
2022-07-25T16:50:08.506Z,4.40
2022-07-25T16:52:35.409Z,4.85
2022-07-25T16:55:02.712Z,2.33
2022-07-25T16:57:31.424Z,3.20
2022-07-25T17:00:00.785Z,3.83
2022-07-25T17:02:29.693Z,3.88
2022-07-25T17:04:58.147Z,4.82
2022-07-25T17:07:26.991Z,2.22
2022-07-25T17:09:54.027Z,3.03
2022-07-25T17:12:21.446Z,3.10
2022-07-25T17:14:48.458Z,4.65
2022-07-25T17:17:15.979Z,3.70
2022-07-25T17:19:43.192Z,2.90
2022-07-25T17:22:10.497Z,2.13
2022-07-25T17:24:38.573Z,8.57
2022-07-25T17:27:08.021Z,3.33
2022-07-25T17:29:35.079Z,3.05
2022-07-25T17:32:02.560Z,4.82
2022-07-25T17:34:29.970Z,3.55
2022-07-25T17:36:57.390Z,3.85
2022-07-25T17:39:25.342Z,4.78
2022-07-25T17:41:53.169Z,3.83
2022-07-25T17:44:20.642Z,2.95
2022-07-25T17:46:50.188Z,4.18
2022-07-25T17:49:17.589Z,4.25
2022-07-25T17:51:44.721Z,4.15
2022-07-25T17:54:12.167Z,3.85
2022-07-25T17:56:39.481Z,4.95
2022-07-25T17:59:08.161Z,6.47
2022-07-25T18:01:35.113Z,4.43
2022-07-25T18:04:02.828Z,3.63
2022-07-25T18:06:30.260Z,4.28
2022-07-25T18:08:57.684Z,7.20
2022-07-25T18:11:24.937Z,3.97
2022-07-25T18:13:52.444Z,4.13
2022-07-25T18:16:19.392Z,3.25
2022-07-25T18:18:46.594Z,4.43
2022-07-25T18:21:13.414Z,3.42
2022-07-25T18:23:40.315Z,6.05
2022-07-25T18:26:09.083Z,5.75
2022-07-25T18:28:36.082Z,8.82
2022-07-25T18:31:02.985Z,7.38
2022-07-25T18:33:30.207Z,4.65
2022-07-25T18:35:58.172Z,5.00
2022-07-25T18:38:25.314Z,4.65
2022-07-25T18:41:12.336Z,3.45
2022-07-25T18:43:39.275Z,4.05
2022-07-25T18:46:08.757Z,6.50
2022-07-25T18:48:36.976Z,4.75
2022-07-25T18:51:04.336Z,3.70
2022-07-25T18:53:31.445Z,3.20
2022-07-25T18:55:58.856Z,5.20
2022-07-25T18:58:25.764Z,7.20
2022-07-25T19:00:52.958Z,3.92
2022-07-25T19:03:19.994Z,7.50
2022-07-25T19:05:46.928Z,13.27
2022-07-25T19:08:14.088Z,7.85
2022-07-25T19:10:41.189Z,5.72
2022-07-25T19:13:08.184Z,6.95
2022-07-25T19:15:35.588Z,5.22
2022-07-25T19:18:06.328Z,10.30
2022-07-25T19:20:33.161Z,6.45
2022-07-25T19:23:01.140Z,8.73
2022-07-25T19:25:28.895Z,9.35
2022-07-25T19:27:55.920Z,7.00
2022-07-25T19:30:23.037Z,5.45
2022-07-25T19:32:50.841Z,7.55
2022-07-25T19:35:25.900Z,7.63
2022-07-25T19:37:53.591Z,7.40
2022-07-25T19:40:21.673Z,8.55
2022-07-25T19:42:48.870Z,9.00
2022-07-25T19:45:16.324Z,5.55
2022-07-25T19:47:43.714Z,11.35
2022-07-25T19:50:10.613Z,7.93
2022-07-25T19:52:37.949Z,7.55
2022-07-25T19:55:05.839Z,7.40
2022-07-25T19:57:32.728Z,8.68
2022-07-25T20:00:00.003Z,6.68
2022-07-25T20:02:26.995Z,5.68
2022-07-25T20:04:53.898Z,8.00
2022-07-25T20:07:21.407Z,5.78
2022-07-25T20:09:48.315Z,6.97
2022-07-25T20:12:15.219Z,5.43
2022-07-25T20:14:42.462Z,7.63
2022-07-25T20:17:09.849Z,5.30
2022-07-25T20:19:37.572Z,8.43
2022-07-25T20:22:05.713Z,7.72
2022-07-25T20:24:33.060Z,5.30
2022-07-25T20:27:00.045Z,8.80
2022-07-25T20:29:27.116Z,9.57
2022-07-25T20:31:54.137Z,10.15
2022-07-25T20:34:21.311Z,5.25
2022-07-25T20:36:48.383Z,9.30
2022-07-25T20:39:15.280Z,6.75
2022-07-25T20:41:42.306Z,6.30
2022-07-25T20:44:12.152Z,6.20
2022-07-25T20:46:39.260Z,7.85
2022-07-25T20:49:09.034Z,11.02
2022-07-25T20:51:40.296Z,6.20
2022-07-25T20:54:07.136Z,6.80
2022-07-25T20:56:34.051Z,7.93
2022-07-25T20:59:01.118Z,6.82
2022-07-25T21:01:28.135Z,6.38
2022-07-25T21:03:55.027Z,6.60
2022-07-25T21:06:26.925Z,8.52
2022-07-25T21:08:54.386Z,12.68
2022-07-25T21:11:21.576Z,11.50
2022-07-25T21:13:48.987Z,6.82
2022-07-25T21:16:15.908Z,8.40
2022-07-25T21:18:42.796Z,8.23
2022-07-25T21:21:12.219Z,7.75
2022-07-25T21:23:39.887Z,5.78
2022-07-25T21:26:07.174Z,11.63
2022-07-25T21:28:34.199Z,8.30
2022-07-25T21:31:01.319Z,8.05
2022-07-25T21:33:28.451Z,10.30
2022-07-25T21:35:55.557Z,8.43
2022-07-25T21:38:26.074Z,9.15
2022-07-25T21:40:55.241Z,8.25
2022-07-25T21:43:22.354Z,9.52
2022-07-25T21:45:49.412Z,7.75
2022-07-25T21:48:16.430Z,8.77
2022-07-25T21:50:49.383Z,8.98
2022-07-25T21:53:17.441Z,13.50
2022-07-25T21:55:44.375Z,10.73
2022-07-25T21:58:11.428Z,7.03
2022-07-25T22:00:45.305Z,12.02
2022-07-25T22:03:12.953Z,8.23
2022-07-25T22:05:40.042Z,10.70
2022-07-25T22:08:06.978Z,8.57
2022-07-25T22:10:34.189Z,10.95
2022-07-25T22:13:01.237Z,8.43
2022-07-25T22:15:28.343Z,10.98
2022-07-25T22:17:55.370Z,8.25
2022-07-25T22:20:22.757Z,10.35
2022-07-25T22:22:50.114Z,10.05
2022-07-25T22:25:17.668Z,12.32
2022-07-25T22:27:44.904Z,7.85
2022-07-25T22:30:18.244Z,10.15
2022-07-25T22:32:49.635Z,10.20
2022-07-25T22:35:16.893Z,12.35
2022-07-25T22:37:44.931Z,8.40
2022-07-25T22:40:13.038Z,8.10
2022-07-25T22:42:39.859Z,13.20
2022-07-25T22:45:08.028Z,8.57
2022-07-25T22:47:35.220Z,10.80
2022-07-25T22:50:02.097Z,8.07
2022-07-25T22:52:29.104Z,11.57
2022-07-25T22:54:56.240Z,9.05
2022-07-25T22:57:23.131Z,10.50
2022-07-25T22:59:50.249Z,9.20
2022-07-25T23:02:17.397Z,9.55
2022-07-25T23:04:44.212Z,9.10
2022-07-25T23:07:11.635Z,9.10
2022-07-25T23:09:39.015Z,8.18
2022-07-25T23:12:06.053Z,9.80
2022-07-25T23:14:32.897Z,8.90
2022-07-25T23:17:18.399Z,10.15
2022-07-25T23:19:48.533Z,9.13
2022-07-25T23:22:16.516Z,11.05
2022-07-25T23:24:44.325Z,8.75
2022-07-25T23:27:12.223Z,9.25
2022-07-25T23:29:39.281Z,8.82
2022-07-25T23:32:07.340Z,11.05
2022-07-25T23:34:35.592Z,12.00
2022-07-25T23:37:03.256Z,8.40
2022-07-25T23:39:31.800Z,11.95
2022-07-25T23:41:59.212Z,12.55
2022-07-25T23:44:26.351Z,19.98
2022-07-25T23:46:57.032Z,13.10
2022-07-25T23:49:24.382Z,12.45
2022-07-25T23:51:51.809Z,10.65
2022-07-25T23:54:18.742Z,11.40
2022-07-25T23:56:45.750Z,12.77
2022-07-25T23:59:12.916Z,12.70
